createdAt,value
2022-12-27T00:01:09.521Z,4.75
2022-12-27T00:06:15.313Z,4.84
2022-12-27T00:11:18.325Z,4.90
2022-12-27T00:16:20.591Z,4.88
2022-12-27T00:21:22.315Z,4.86
2022-12-27T00:26:25.036Z,4.98
2022-12-27T00:31:27.770Z,5.02
2022-12-27T00:36:29.980Z,5.00
2022-12-27T00:41:31.415Z,5.01
2022-12-27T00:46:32.872Z,4.99
2022-12-27T00:51:36.514Z,4.98
2022-12-27T00:56:37.859Z,4.96
2022-12-27T01:01:39.493Z,4.98
2022-12-27T01:06:40.918Z,5.01
2022-12-27T01:11:42.272Z,5.00
2022-12-27T01:16:44.082Z,4.98
2022-12-27T01:21:45.456Z,4.91
2022-12-27T01:26:46.854Z,4.77
2022-12-27T01:31:49.945Z,4.71
2022-12-27T01:36:51.276Z,4.68
2022-12-27T01:42:11.309Z,4.68
2022-12-27T01:47:16.103Z,4.70
2022-12-27T01:52:17.453Z,4.73
2022-12-27T01:57:18.810Z,4.70
2022-12-27T02:02:22.319Z,4.66
2022-12-27T02:07:31.257Z,4.65
2022-12-27T02:12:32.616Z,4.70
2022-12-27T02:17:34.551Z,4.83
2022-12-27T02:22:55.811Z,4.90
2022-12-27T02:28:29.722Z,4.78
2022-12-27T02:33:34.751Z,4.67
2022-12-27T02:38:37.710Z,4.65
2022-12-27T02:43:58.017Z,4.54
2022-12-27T02:49:17.727Z,4.47
2022-12-27T02:54:32.073Z,4.32
2022-12-27T02:59:59.693Z,4.15
2022-12-27T03:05:14.465Z,4.02
2022-12-27T03:10:49.853Z,3.97
2022-12-27T03:16:09.835Z,3.92
2022-12-27T03:21:31.516Z,3.94
2022-12-27T03:26:34.466Z,3.99
2022-12-27T03:31:57.519Z,4.06
2022-12-27T03:37:20.501Z,4.02
2022-12-27T03:42:43.235Z,3.89
2022-12-27T03:47:50.300Z,3.81
2022-12-27T03:52:55.866Z,3.80
2022-12-27T03:57:57.329Z,3.80
2022-12-27T04:02:58.970Z,3.81
2022-12-27T04:08:19.399Z,3.78
2022-12-27T04:13:39.422Z,3.70
2022-12-27T04:18:59.353Z,3.61
2022-12-27T04:24:19.582Z,3.52
2022-12-27T04:29:39.308Z,3.46
2022-12-27T04:34:43.442Z,3.39
2022-12-27T04:40:03.898Z,3.31
2022-12-27T04:45:34.728Z,3.28
2022-12-27T04:50:54.603Z,3.23
2022-12-27T04:55:56.132Z,3.23
2022-12-27T05:01:17.479Z,3.33
2022-12-27T05:06:19.740Z,3.48
2022-12-27T05:11:39.915Z,3.62
2022-12-27T05:16:42.624Z,3.72
2022-12-27T05:22:03.499Z,3.77
2022-12-27T05:27:04.856Z,3.77
2022-12-27T05:32:12.618Z,3.74
2022-12-27T05:37:14.581Z,3.74
2022-12-27T05:42:15.886Z,3.79
2022-12-27T05:47:17.213Z,3.80
2022-12-27T05:52:19.027Z,3.80
2022-12-27T05:57:20.608Z,3.79
2022-12-27T06:02:22.078Z,3.74
2022-12-27T06:07:23.556Z,3.57
2022-12-27T06:12:24.933Z,3.37
2022-12-27T06:17:26.277Z,3.28
2022-12-27T06:22:27.614Z,3.18
2022-12-27T06:27:28.961Z,3.12
2022-12-27T06:32:30.449Z,3.11
2022-12-27T06:37:31.798Z,3.09
2022-12-27T06:42:33.109Z,2.99
2022-12-27T06:47:34.451Z,2.94
2022-12-27T06:52:35.790Z,2.99
2022-12-27T06:57:37.209Z,3.05
2022-12-27T07:02:39.633Z,3.09
2022-12-27T07:07:41.388Z,3.10
2022-12-27T07:12:42.693Z,3.09
2022-12-27T07:17:44.015Z,3.06
2022-12-27T07:22:45.330Z,3.04
2022-12-27T07:27:46.809Z,3.08
2022-12-27T07:32:49.554Z,3.12
2022-12-27T07:37:51.514Z,3.13
2022-12-27T07:42:53.699Z,3.18
2022-12-27T07:47:57.012Z,3.27
2022-12-27T07:52:58.374Z,3.36
2022-12-27T07:57:59.748Z,3.37
2022-12-27T08:03:01.149Z,3.39
2022-12-27T08:08:02.892Z,3.42
2022-12-27T08:13:05.729Z,3.43
2022-12-27T08:18:07.109Z,3.45
2022-12-27T08:23:09.870Z,3.61
2022-12-27T08:28:13.281Z,3.82
2022-12-27T08:33:15.245Z,3.99
2022-12-27T08:38:16.818Z,4.14
2022-12-27T08:43:18.215Z,4.30
2022-12-27T08:48:19.881Z,4.40
2022-12-27T08:59:30.518Z,4.52
2022-12-27T09:04:41.990Z,4.58
2022-12-27T09:09:56.979Z,4.65
2022-12-27T09:15:02.806Z,4.56
2022-12-27T09:26:02.723Z,4.55
2022-12-27T09:31:06.838Z,4.58
2022-12-27T09:36:15.393Z,4.70
2022-12-27T09:42:45.919Z,4.89
2022-12-27T09:47:14.341Z,4.97
2022-12-27T09:52:22.403Z,4.99
2022-12-27T09:57:43.280Z,4.97
2022-12-27T10:02:45.302Z,4.96
2022-12-27T10:07:54.187Z,5.00
2022-12-27T10:13:16.783Z,5.05
2022-12-27T10:18:34.021Z,5.16
2022-12-27T10:23:38.160Z,5.25
2022-12-27T10:28:41.477Z,5.34
2022-12-27T10:33:46.190Z,5.35
2022-12-27T10:38:47.916Z,5.38
2022-12-27T10:43:53.637Z,5.42
2022-12-27T10:54:26.629Z,5.54
2022-12-27T10:59:28.865Z,5.57
2022-12-27T11:04:33.012Z,5.65
2022-12-27T11:09:50.782Z,5.77
2022-12-27T11:14:58.332Z,5.87
2022-12-27T11:20:03.247Z,5.97
2022-12-27T11:25:04.972Z,6.13
2022-12-27T11:30:07.580Z,6.32
2022-12-27T11:35:16.259Z,6.32
2022-12-27T11:40:21.510Z,6.21
2022-12-27T11:45:37.535Z,6.13
2022-12-27T11:50:39.060Z,6.25
2022-12-27T11:55:52.527Z,6.54
2022-12-27T12:00:54.173Z,6.69
2022-12-27T12:06:04.879Z,6.67
2022-12-27T12:11:06.719Z,6.62
2022-12-27T12:16:28.781Z,6.56
2022-12-27T12:21:30.478Z,6.50
2022-12-27T12:26:56.075Z,6.48
2022-12-27T12:32:19.343Z,6.47
2022-12-27T12:37:20.964Z,6.43
2022-12-27T12:42:49.427Z,6.47
2022-12-27T12:47:51.429Z,6.44
2022-12-27T12:59:31.725Z,6.36
2022-12-27T13:04:35.216Z,6.34
2022-12-27T13:09:55.622Z,6.39
2022-12-27T13:15:13.082Z,6.45
2022-12-27T13:20:26.099Z,6.42
2022-12-27T13:25:39.427Z,6.38
2022-12-27T13:30:41.048Z,6.34
2022-12-27T13:36:01.549Z,6.33
2022-12-27T13:41:06.344Z,6.34
2022-12-27T13:46:20.214Z,6.33
2022-12-27T13:51:22.071Z,6.35
2022-12-27T13:56:57.752Z,6.34
2022-12-27T14:02:18.346Z,6.24
2022-12-27T14:07:20.130Z,6.20
2022-12-27T14:12:42.175Z,6.19
2022-12-27T14:17:43.759Z,6.21
2022-12-27T14:22:54.285Z,6.13
2022-12-27T14:28:13.506Z,5.99
2022-12-27T14:33:21.373Z,5.89
2022-12-27T14:38:41.599Z,5.81
2022-12-27T14:44:05.153Z,5.81
2022-12-27T14:49:12.701Z,5.88
2022-12-27T14:54:52.591Z,5.89
2022-12-27T15:00:14.583Z,5.81
2022-12-27T15:05:21.999Z,5.71
2022-12-27T15:10:31.849Z,5.63
2022-12-27T15:15:41.021Z,5.53
2022-12-27T15:21:01.278Z,5.45
2022-12-27T15:26:21.295Z,5.39
2022-12-27T15:31:34.748Z,5.33
2022-12-27T15:36:46.965Z,5.27
2022-12-27T15:41:57.671Z,5.19
2022-12-27T15:47:14.358Z,5.13
2022-12-27T15:52:18.782Z,5.07
2022-12-27T15:57:28.645Z,5.02
2022-12-27T16:02:32.054Z,4.97
2022-12-27T16:07:38.400Z,4.93
2022-12-27T16:12:39.793Z,4.89
2022-12-27T16:17:54.306Z,4.85
2022-12-27T16:22:57.783Z,4.81
2022-12-27T16:28:04.833Z,4.79
2022-12-27T16:33:07.420Z,4.76
2022-12-27T16:38:21.162Z,4.71
2022-12-27T16:43:26.644Z,4.67
2022-12-27T16:48:45.004Z,4.63
2022-12-27T16:54:04.297Z,4.59
2022-12-27T16:59:25.615Z,4.57
2022-12-27T17:04:45.669Z,4.57
2022-12-27T17:09:47.135Z,4.58
2022-12-27T17:14:53.791Z,4.58
2022-12-27T17:19:55.186Z,4.57
2022-12-27T17:24:58.993Z,4.54
2022-12-27T17:30:18.646Z,4.51
2022-12-27T17:35:29.684Z,4.50
2022-12-27T17:40:33.985Z,4.48
2022-12-27T17:45:45.700Z,4.49
2022-12-27T17:50:47.379Z,4.49
2022-12-27T17:56:17.588Z,4.47
2022-12-27T18:01:19.103Z,4.45
2022-12-27T18:06:20.607Z,4.44
2022-12-27T18:11:27.778Z,4.45
2022-12-27T18:16:35.306Z,4.47
2022-12-27T18:21:36.662Z,4.47
2022-12-27T18:26:39.324Z,4.46
2022-12-27T18:31:47.559Z,4.44
2022-12-27T18:36:51.677Z,4.45
2022-12-27T18:41:54.311Z,4.47
2022-12-27T18:46:57.342Z,4.50
2022-12-27T18:52:00.220Z,4.54
2022-12-27T18:57:03.126Z,4.58
2022-12-27T19:02:23.217Z,4.63
2022-12-27T19:07:24.599Z,4.67
2022-12-27T19:12:33.926Z,4.72
2022-12-27T19:17:37.988Z,4.72
2022-12-27T19:22:50.013Z,4.77
2022-12-27T19:28:09.768Z,4.81
2022-12-27T19:33:20.332Z,4.82
2022-12-27T19:38:23.204Z,4.80
2022-12-27T19:43:25.936Z,4.77
2022-12-27T19:48:27.257Z,4.74
2022-12-27T19:53:31.073Z,4.73
2022-12-27T19:58:32.419Z,4.72
2022-12-27T20:03:34.296Z,4.72
2022-12-27T20:08:45.584Z,4.71
2022-12-27T20:13:47.480Z,4.70
2022-12-27T20:18:48.826Z,4.70
2022-12-27T20:23:50.182Z,4.67
2022-12-27T20:28:52.156Z,4.63
2022-12-27T20:33:55.050Z,4.60
2022-12-27T20:38:56.503Z,4.59
2022-12-27T20:43:58.222Z,4.58
2022-12-27T20:49:00.200Z,4.56
2022-12-27T20:54:02.197Z,4.56
2022-12-27T20:59:03.609Z,4.55
2022-12-27T21:04:05.247Z,4.51
2022-12-27T21:09:08.450Z,4.48
2022-12-27T21:14:10.806Z,4.45
2022-12-27T21:19:12.163Z,4.43
2022-12-27T21:24:14.207Z,4.42
2022-12-27T21:29:16.585Z,4.37
2022-12-27T21:34:17.993Z,4.33
2022-12-27T21:39:19.681Z,4.32
2022-12-27T21:44:25.043Z,4.31
2022-12-27T21:49:26.368Z,4.31
2022-12-27T21:54:27.689Z,4.31
2022-12-27T21:59:29.047Z,4.24
2022-12-27T22:04:30.365Z,4.26
2022-12-27T22:09:31.679Z,4.32
2022-12-27T22:14:36.843Z,4.35
2022-12-27T22:19:38.449Z,4.35
2022-12-27T22:24:39.758Z,4.35
2022-12-27T22:29:41.071Z,4.36
2022-12-27T22:34:42.377Z,4.37
2022-12-27T22:39:43.710Z,4.38
2022-12-27T22:44:45.061Z,4.39
2022-12-27T22:49:46.441Z,4.39
2022-12-27T22:55:04.295Z,4.40
2022-12-27T23:00:12.411Z,4.39
2022-12-27T23:05:13.923Z,4.39
2022-12-27T23:10:15.464Z,4.40
2022-12-27T23:15:16.860Z,4.41
2022-12-27T23:20:18.481Z,4.43
2022-12-27T23:25:19.796Z,4.49
2022-12-27T23:30:22.876Z,4.53
2022-12-27T23:35:24.198Z,4.57
2022-12-27T23:40:25.534Z,4.58
2022-12-27T23:45:26.849Z,4.59
2022-12-27T23:50:28.234Z,4.58
2022-12-27T23:55:29.562Z,4.54
